Time;durP1;ratioP1;P1;durP2;ratioP2;P2;SDS_P1;SDS_P2;PMS_P1;PMS_P2;Temp;Humidity;BMP_temperature;BMP_pressure;BME280_temperature;BME280_humidity;BME280_pressure;Samples;Min_cycle;Max_cycle;Signal;HPM_P1;HPM_P2
2022/07/17 00:00:46;;;;;;;13.57;6.53;;;13.90;99.90;;;;;;4957588;28;20045;-58
2022/07/17 00:03:13;;;;;;;16.83;5.50;;;13.90;99.90;;;;;;4960427;28;20031;-58
2022/07/17 00:05:38;;;;;;;10.50;5.63;;;14.00;99.90;;;;;;4952715;28;20046;-58
2022/07/17 00:08:06;;;;;;;9.98;5.30;;;14.00;99.90;;;;;;4962298;28;20026;-59
2022/07/17 00:10:32;;;;;;;11.82;5.30;;;14.00;99.90;;;;;;4952066;28;20051;-58
2022/07/17 00:12:58;;;;;;;8.90;5.30;;;14.00;99.90;;;;;;4970411;28;20050;-58
2022/07/17 00:15:23;;;;;;;11.00;6.05;;;14.00;99.90;;;;;;4970249;28;20027;-57
2022/07/17 00:17:49;;;;;;;8.18;5.15;;;14.10;99.90;;;;;;4969922;28;20039;-58
2022/07/17 00:20:15;;;;;;;10.15;5.65;;;14.10;99.90;;;;;;4966982;28;20031;-58
2022/07/17 00:22:42;;;;;;;10.55;5.22;;;14.10;99.90;;;;;;4971054;28;20043;-58
2022/07/17 00:25:09;;;;;;;7.30;4.95;;;14.10;99.90;;;;;;4968814;28;20031;-59
2022/07/17 00:27:36;;;;;;;9.85;5.10;;;14.00;99.90;;;;;;4969977;28;20042;-60
2022/07/17 00:30:02;;;;;;;8.25;5.00;;;13.90;99.90;;;;;;4970628;28;20035;-61
2022/07/17 00:32:28;;;;;;;6.78;4.45;;;13.60;99.90;;;;;;4958568;28;20027;-60
2022/07/17 00:34:54;;;;;;;11.77;5.93;;;13.50;99.90;;;;;;4964122;28;20388;-61
2022/07/17 00:37:19;;;;;;;10.98;5.88;;;13.30;99.90;;;;;;4951494;28;20466;-60
2022/07/17 00:39:45;;;;;;;9.02;5.90;;;13.30;99.90;;;;;;4956707;28;20101;-60
2022/07/17 00:42:13;;;;;;;10.32;5.03;;;13.40;99.90;;;;;;4961924;28;20039;-60
2022/07/17 00:44:40;;;;;;;12.50;5.70;;;13.30;99.90;;;;;;4968025;28;20037;-58
2022/07/17 00:47:20;;;;;;;7.35;4.80;;;13.20;99.90;;;;;;4972902;28;20035;-59
2022/07/17 00:49:47;;;;;;;8.60;5.57;;;13.10;99.90;;;;;;4970100;28;20401;-58
2022/07/17 00:52:14;;;;;;;8.77;5.38;;;13.20;99.90;;;;;;4968528;28;20046;-58
2022/07/17 00:54:42;;;;;;;8.63;5.75;;;13.30;99.90;;;;;;4968305;28;20035;-59
2022/07/17 00:57:11;;;;;;;10.02;6.15;;;13.20;99.90;;;;;;4968699;28;20381;-58
2022/07/17 00:59:37;;;;;;;10.00;5.90;;;13.10;99.90;;;;;;4971138;28;20035;-59
2022/07/17 01:02:08;;;;;;;9.75;5.80;;;12.90;99.90;;;;;;4958382;28;20034;-58
2022/07/17 01:04:34;;;;;;;11.10;5.90;;;12.90;99.90;;;;;;4971239;28;20029;-57
2022/07/17 01:07:01;;;;;;;12.48;6.97;;;12.90;99.90;;;;;;4973316;28;20038;-58
2022/07/17 01:09:29;;;;;;;13.48;6.40;;;12.70;99.90;;;;;;4969869;28;20674;-57
2022/07/17 01:11:55;;;;;;;10.02;5.65;;;12.60;99.90;;;;;;4971265;28;20070;-57
2022/07/17 01:14:23;;;;;;;8.35;5.32;;;12.50;99.90;;;;;;4968089;28;20040;-58
2022/07/17 01:16:50;;;;;;;8.02;5.97;;;12.40;99.90;;;;;;4962889;28;20035;-57
2022/07/17 01:19:16;;;;;;;9.93;5.70;;;12.40;99.90;;;;;;4965302;28;20121;-58
2022/07/17 01:21:44;;;;;;;10.43;6.22;;;12.40;99.90;;;;;;4966431;28;20526;-58
2022/07/17 01:24:10;;;;;;;9.73;6.15;;;12.40;99.90;;;;;;4964574;28;20106;-59
2022/07/17 01:26:36;;;;;;;10.40;5.60;;;12.40;99.90;;;;;;4969829;28;20030;-58
2022/07/17 01:29:02;;;;;;;9.48;5.70;;;12.30;99.90;;;;;;4967352;28;21049;-58
2022/07/17 01:31:28;;;;;;;7.63;5.55;;;12.30;99.90;;;;;;4957495;28;20073;-57
2022/07/17 01:33:54;;;;;;;9.77;6.55;;;12.40;99.90;;;;;;4958720;28;20085;-58
2022/07/17 01:36:23;;;;;;;12.13;6.03;;;12.50;99.90;;;;;;4956608;28;20026;-57
2022/07/17 01:38:49;;;;;;;12.50;6.63;;;12.50;99.90;;;;;;4969061;28;20041;-57
2022/07/17 01:41:15;;;;;;;10.00;6.05;;;12.30;99.90;;;;;;4971253;28;21989;-58
2022/07/17 01:43:41;;;;;;;8.50;5.65;;;12.20;99.90;;;;;;4969366;28;20045;-58
2022/07/17 01:46:07;;;;;;;9.20;5.68;;;12.00;99.90;;;;;;4972484;28;20094;-59
2022/07/17 01:48:33;;;;;;;10.25;5.85;;;11.90;99.90;;;;;;4950676;29;20027;-57
2022/07/17 01:50:59;;;;;;;9.35;6.25;;;12.00;99.90;;;;;;4962034;28;20152;-57
2022/07/17 01:53:25;;;;;;;10.93;5.75;;;12.00;99.90;;;;;;4968238;28;20073;-57
2022/07/17 01:55:50;;;;;;;9.05;5.82;;;11.90;99.90;;;;;;4967168;28;20039;-58
2022/07/17 01:58:16;;;;;;;11.90;6.38;;;12.00;99.90;;;;;;4951178;28;20059;-57
2022/07/17 02:00:42;;;;;;;9.13;6.32;;;11.90;99.90;;;;;;4962902;28;20034;-57
2022/07/17 02:03:08;;;;;;;11.05;6.07;;;12.00;99.90;;;;;;4966528;28;20042;-59
2022/07/17 02:05:34;;;;;;;9.95;6.05;;;12.00;99.90;;;;;;4971034;28;20031;-57
2022/07/17 02:07:59;;;;;;;14.10;6.55;;;11.90;99.90;;;;;;4969595;28;20728;-58
2022/07/17 02:10:25;;;;;;;10.18;6.65;;;11.90;99.90;;;;;;4964394;28;20090;-58
2022/07/17 02:12:51;;;;;;;12.45;6.53;;;11.80;99.90;;;;;;4961908;28;20511;-57
2022/07/17 02:15:17;;;;;;;14.02;6.28;;;11.70;99.90;;;;;;4965318;28;20031;-58
2022/07/17 02:17:43;;;;;;;10.85;6.30;;;11.70;99.90;;;;;;4956212;28;20065;-57
2022/07/17 02:20:10;;;;;;;10.95;6.15;;;11.70;99.90;;;;;;4970636;28;20039;-58
2022/07/17 02:22:36;;;;;;;12.20;6.25;;;11.70;99.90;;;;;;4972394;28;20046;-58
2022/07/17 02:25:03;;;;;;;10.95;6.10;;;11.70;99.90;;;;;;4968607;28;20113;-58
2022/07/17 02:27:31;;;;;;;10.57;6.50;;;11.60;99.90;;;;;;4969820;28;20877;-58
2022/07/17 02:29:56;;;;;;;12.00;6.13;;;11.60;99.90;;;;;;4969329;28;20097;-58
2022/07/17 02:32:22;;;;;;;10.98;6.57;;;11.70;99.90;;;;;;4967659;28;20464;-58
2022/07/17 02:34:48;;;;;;;8.38;5.97;;;11.60;99.90;;;;;;4968084;28;20031;-58
2022/07/17 02:37:13;;;;;;;12.93;7.07;;;11.60;99.90;;;;;;4969247;28;20444;-59
2022/07/17 02:39:52;;;;;;;11.48;6.72;;;11.50;99.90;;;;;;4972763;28;20118;-58
2022/07/17 02:42:25;;;;;;;11.95;6.35;;;11.50;99.90;;;;;;4968930;28;20031;-57
2022/07/17 02:44:51;;;;;;;11.70;6.18;;;11.40;99.90;;;;;;4973816;28;20042;-58
2022/07/17 02:47:36;;;;;;;9.65;6.00;;;11.40;99.90;;;;;;4972014;28;20035;-58
2022/07/17 02:50:05;;;;;;;9.98;6.25;;;11.40;99.90;;;;;;4955034;28;20180;-59
2022/07/17 02:52:30;;;;;;;12.32;6.60;;;11.40;99.90;;;;;;4970568;28;20054;-57
2022/07/17 02:54:56;;;;;;;9.75;6.57;;;11.40;99.90;;;;;;4964926;28;20078;-57
2022/07/17 02:57:22;;;;;;;10.88;7.13;;;11.40;99.90;;;;;;4973014;28;20093;-57
2022/07/17 02:59:48;;;;;;;10.70;7.00;;;11.30;99.90;;;;;;4965288;28;20478;-57
2022/07/17 03:02:14;;;;;;;11.00;6.80;;;11.30;99.90;;;;;;4967498;28;20031;-59
2022/07/17 03:04:40;;;;;;;13.60;6.60;;;11.40;99.90;;;;;;4967386;28;20226;-58
2022/07/17 03:07:05;;;;;;;8.38;5.97;;;11.30;99.90;;;;;;4954426;28;20035;-57
2022/07/17 03:09:31;;;;;;;9.85;6.47;;;11.20;99.90;;;;;;4955077;28;20630;-57
2022/07/17 03:11:57;;;;;;;12.65;6.65;;;11.20;99.90;;;;;;4971657;28;20449;-57
2022/07/17 03:14:23;;;;;;;10.35;6.68;;;11.10;99.90;;;;;;4973287;28;20556;-58
2022/07/17 03:16:49;;;;;;;10.35;6.50;;;11.10;99.90;;;;;;4954279;28;20031;-57
2022/07/17 03:19:14;;;;;;;10.98;6.60;;;11.10;99.90;;;;;;4964108;28;20520;-58
2022/07/17 03:21:40;;;;;;;12.02;6.78;;;11.10;99.90;;;;;;4960572;28;20042;-58
2022/07/17 03:24:06;;;;;;;12.05;7.13;;;11.10;99.90;;;;;;4973017;28;20187;-57
2022/07/17 03:26:31;;;;;;;11.15;7.30;;;11.10;99.90;;;;;;4971947;28;20858;-58
2022/07/17 03:28:57;;;;;;;11.05;7.10;;;11.10;99.90;;;;;;4971988;28;20030;-58
2022/07/17 03:31:22;;;;;;;10.52;6.78;;;11.00;99.90;;;;;;4971838;28;20133;-58
2022/07/17 03:33:48;;;;;;;11.68;6.90;;;11.00;99.90;;;;;;4971272;28;20537;-58
2022/07/17 03:36:14;;;;;;;9.80;6.63;;;11.00;99.90;;;;;;4951674;29;20036;-58
2022/07/17 03:38:40;;;;;;;10.80;6.90;;;10.90;99.90;;;;;;4958287;28;20508;-58
2022/07/17 03:41:06;;;;;;;10.75;7.03;;;10.90;99.90;;;;;;4969148;28;20035;-58
2022/07/17 03:43:31;;;;;;;10.07;6.65;;;10.90;99.90;;;;;;4965211;28;20038;-57
2022/07/17 03:45:57;;;;;;;11.63;6.60;;;10.80;99.90;;;;;;4954671;28;20034;-57
2022/07/17 03:48:23;;;;;;;10.80;6.07;;;10.80;99.90;;;;;;4972179;28;20027;-58
2022/07/17 03:50:48;;;;;;;13.82;7.13;;;10.70;99.90;;;;;;4967359;28;20035;-57
2022/07/17 03:53:14;;;;;;;11.52;7.13;;;10.60;99.90;;;;;;4964459;28;20031;-59
2022/07/17 03:55:40;;;;;;;13.77;7.90;;;10.40;99.90;;;;;;4972147;28;20129;-58
2022/07/17 03:58:05;;;;;;;14.82;8.30;;;10.30;99.90;;;;;;4969731;28;20030;-58
2022/07/17 04:00:31;;;;;;;16.73;7.60;;;10.40;99.90;;;;;;4965314;28;20023;-58
2022/07/17 04:02:56;;;;;;;11.48;7.78;;;10.30;99.90;;;;;;4961409;28;20046;-57
2022/07/17 04:05:22;;;;;;;13.35;7.57;;;10.30;99.90;;;;;;4975434;28;20161;-58
2022/07/17 04:07:48;;;;;;;16.95;7.72;;;10.40;99.90;;;;;;4972383;28;20031;-58
2022/07/17 04:10:15;;;;;;;14.95;8.27;;;10.40;99.90;;;;;;4968655;28;20055;-58
2022/07/17 04:12:41;;;;;;;11.07;7.38;;;10.50;99.90;;;;;;4970644;28;20030;-61
2022/07/17 04:15:08;;;;;;;15.75;7.75;;;10.60;99.90;;;;;;4970729;28;20035;-60
2022/07/17 04:17:34;;;;;;;20.42;12.10;;;10.70;99.90;;;;;;4973358;28;20174;-60
2022/07/17 04:20:00;;;;;;;24.55;16.13;;;10.80;99.90;;;;;;4990531;28;20606;-60
2022/07/17 04:22:25;;;;;;;39.67;24.80;;;10.90;99.90;;;;;;4984532;28;20042;-60
2022/07/17 04:24:51;;;;;;;30.88;18.15;;;11.00;99.90;;;;;;4971015;28;20022;-60
2022/07/17 04:27:18;;;;;;;22.13;13.55;;;11.00;99.90;;;;;;5001223;23;20069;-61
2022/07/17 04:29:44;;;;;;;18.13;11.80;;;11.00;99.90;;;;;;5008155;28;20041;-60
2022/07/17 04:32:10;;;;;;;17.15;10.32;;;11.10;99.90;;;;;;5008187;28;20026;-59
2022/07/17 04:34:36;;;;;;;16.00;9.98;;;11.00;99.90;;;;;;5008750;28;20033;-60
2022/07/17 04:37:03;;;;;;;24.92;13.50;;;11.20;99.90;;;;;;5006827;28;20014;-60
2022/07/17 04:39:29;;;;;;;16.38;9.05;;;11.40;99.90;;;;;;5004014;28;20037;-60
2022/07/17 04:41:55;;;;;;;16.08;10.10;;;11.40;99.90;;;;;;4992686;28;20043;-61
2022/07/17 04:44:21;;;;;;;21.52;13.52;;;11.60;99.90;;;;;;5006012;28;20095;-62
2022/07/17 04:46:47;;;;;;;15.98;8.75;;;11.80;99.90;;;;;;5000948;28;20451;-61
2022/07/17 04:49:13;;;;;;;14.57;8.25;;;11.90;99.90;;;;;;5004884;28;20029;-61
2022/07/17 04:51:39;;;;;;;11.50;7.57;;;12.00;99.90;;;;;;4987336;28;20236;-61
2022/07/17 04:54:05;;;;;;;14.25;7.88;;;12.10;99.90;;;;;;5008700;28;20030;-61
2022/07/17 04:56:30;;;;;;;12.60;7.15;;;12.30;99.90;;;;;;5004700;28;20476;-61
2022/07/17 04:58:56;;;;;;;12.27;7.03;;;12.40;99.90;;;;;;5009817;28;20022;-61
2022/07/17 05:01:22;;;;;;;14.57;7.22;;;12.50;99.90;;;;;;5008236;28;20040;-62
2022/07/17 05:03:47;;;;;;;14.65;7.90;;;12.50;99.90;;;;;;5010103;28;20052;-61
2022/07/17 05:06:13;;;;;;;12.20;7.75;;;12.70;99.90;;;;;;5008681;28;20479;-62
2022/07/17 05:08:39;;;;;;;11.93;7.53;;;12.80;99.90;;;;;;5008017;28;20185;-61
2022/07/17 05:11:04;;;;;;;10.60;6.95;;;13.00;99.90;;;;;;5009888;28;20057;-61
2022/07/17 05:13:30;;;;;;;10.20;7.22;;;13.00;99.90;;;;;;5008475;28;20033;-62
2022/07/17 05:15:56;;;;;;;10.75;6.82;;;13.20;99.90;;;;;;5005826;28;20034;-61
2022/07/17 05:18:21;;;;;;;10.63;7.70;;;13.40;99.90;;;;;;5000307;28;20113;-59
2022/07/17 05:20:47;;;;;;;10.23;7.15;;;13.40;99.90;;;;;;5009228;28;20041;-59
2022/07/17 05:23:13;;;;;;;11.57;7.40;;;13.50;99.90;;;;;;5008806;28;20030;-59
2022/07/17 05:25:38;;;;;;;11.27;7.20;;;13.60;99.90;;;;;;4999134;28;20039;-59
2022/07/17 05:28:04;;;;;;;12.43;7.30;;;13.70;99.90;;;;;;4991564;28;20864;-58
2022/07/17 05:30:30;;;;;;;11.30;7.72;;;13.80;99.90;;;;;;5008500;28;20041;-59
2022/07/17 05:32:56;;;;;;;12.18;7.28;;;14.00;99.90;;;;;;5008145;28;20118;-59
2022/07/17 05:35:22;;;;;;;13.73;7.50;;;14.20;99.90;;;;;;5009259;28;20435;-59
2022/07/17 05:37:48;;;;;;;14.48;7.20;;;14.50;99.90;;;;;;5009074;28;20080;-59
2022/07/17 05:40:14;;;;;;;13.00;6.80;;;14.60;99.90;;;;;;5009326;28;20113;-58
2022/07/17 05:42:40;;;;;;;10.23;6.75;;;14.70;99.90;;;;;;5009163;28;20145;-59
2022/07/17 05:45:06;;;;;;;8.77;6.40;;;14.70;99.90;;;;;;5007749;28;20034;-59
2022/07/17 05:47:32;;;;;;;8.90;6.22;;;14.90;99.90;;;;;;5006754;28;20026;-59
2022/07/17 05:49:58;;;;;;;9.65;6.40;;;15.10;99.90;;;;;;5009556;28;20053;-59
2022/07/17 05:52:24;;;;;;;15.85;6.45;;;15.40;99.90;;;;;;5007022;28;20103;-59
2022/07/17 05:54:50;;;;;;;9.07;5.93;;;15.70;99.90;;;;;;5007562;28;20159;-58
2022/07/17 05:57:16;;;;;;;14.93;5.75;;;15.90;99.90;;;;;;5008969;28;20044;-59
2022/07/17 05:59:41;;;;;;;11.57;5.50;;;16.30;99.90;;;;;;5002603;28;20030;-59
2022/07/17 06:02:07;;;;;;;8.38;5.43;;;16.40;99.90;;;;;;5004411;28;20046;-59
2022/07/17 06:04:33;;;;;;;8.82;5.22;;;16.60;99.90;;;;;;4994539;28;20108;-59
2022/07/17 06:06:59;;;;;;;7.85;5.05;;;16.80;99.90;;;;;;5007848;28;20026;-59
2022/07/17 06:09:25;;;;;;;8.15;4.95;;;16.90;99.90;;;;;;5006115;28;20435;-60
2022/07/17 06:11:50;;;;;;;10.45;5.25;;;16.90;99.90;;;;;;4983872;28;20049;-58
2022/07/17 06:14:16;;;;;;;7.03;4.93;;;17.00;99.90;;;;;;4993686;28;20026;-59
2022/07/17 06:16:42;;;;;;;7.60;4.70;;;17.20;99.90;;;;;;4992703;28;20812;-59
2022/07/17 06:19:07;;;;;;;11.98;4.72;;;17.30;99.90;;;;;;4993841;28;20058;-59
2022/07/17 06:21:33;;;;;;;9.40;4.32;;;17.40;99.90;;;;;;4995887;28;20034;-59
2022/07/17 06:23:59;;;;;;;8.50;4.32;;;17.60;99.90;;;;;;5013049;28;20456;-59
2022/07/17 06:26:25;;;;;;;6.13;4.32;;;17.60;99.90;;;;;;5012284;28;20076;-59
2022/07/17 06:28:51;;;;;;;6.15;4.10;;;17.80;99.90;;;;;;5012842;28;20038;-59
2022/07/17 06:31:17;;;;;;;8.88;4.75;;;17.90;99.90;;;;;;5011309;28;20038;-59
2022/07/17 06:33:42;;;;;;;7.35;4.60;;;18.10;99.90;;;;;;4992307;28;20319;-59
2022/07/17 06:36:08;;;;;;;6.55;4.20;;;18.20;99.90;;;;;;4993134;28;20030;-59
2022/07/17 06:38:34;;;;;;;6.63;4.32;;;18.30;99.90;;;;;;4992298;28;20484;-59
2022/07/17 06:41:00;;;;;;;8.23;4.68;;;18.30;99.60;;;;;;4995346;28;20084;-59
2022/07/17 06:43:26;;;;;;;5.85;4.30;;;18.40;99.90;;;;;;4992311;28;20042;-59
2022/07/17 06:45:53;;;;;;;9.57;4.22;;;18.60;99.90;;;;;;4995167;28;20534;-60
2022/07/17 06:48:21;;;;;;;8.60;4.78;;;18.80;99.70;;;;;;4992960;28;20068;-59
2022/07/17 06:50:46;;;;;;;8.05;4.30;;;18.90;99.70;;;;;;4992133;28;20033;-59
2022/07/17 06:53:12;;;;;;;5.65;4.03;;;19.10;98.90;;;;;;4991977;28;20038;-60
2022/07/17 06:55:38;;;;;;;6.97;4.07;;;19.30;98.70;;;;;;5011499;28;20113;-59
2022/07/17 06:58:04;;;;;;;5.30;3.80;;;19.30;97.90;;;;;;5012233;28;20030;-59
2022/07/17 07:00:30;;;;;;;11.20;3.85;;;19.30;97.60;;;;;;5011839;28;20543;-59
2022/07/17 07:02:56;;;;;;;8.63;4.22;;;19.40;97.40;;;;;;5010746;28;20057;-60
2022/07/17 07:05:21;;;;;;;5.95;4.05;;;19.60;96.40;;;;;;5012248;28;20034;-60
2022/07/17 07:07:47;;;;;;;7.80;3.83;;;19.80;97.40;;;;;;5011171;28;20022;-59
2022/07/17 07:10:14;;;;;;;4.95;3.97;;;20.10;95.70;;;;;;5011990;28;20036;-60
2022/07/17 07:12:39;;;;;;;6.45;3.97;;;20.20;95.30;;;;;;5010236;28;20041;-59
2022/07/17 07:15:06;;;;;;;5.88;4.18;;;20.20;96.10;;;;;;5012199;28;20034;-59
2022/07/17 07:17:34;;;;;;;6.65;4.05;;;20.30;95.10;;;;;;5010920;28;20030;-60
2022/07/17 07:20:01;;;;;;;7.07;4.25;;;20.40;94.70;;;;;;5011816;28;20659;-59
2022/07/17 07:22:27;;;;;;;6.03;4.00;;;20.40;94.70;;;;;;5002805;28;20038;-60
2022/07/17 07:24:53;;;;;;;6.68;3.85;;;20.70;95.20;;;;;;5000172;28;20053;-60
2022/07/17 07:27:18;;;;;;;4.50;3.72;;;21.00;94.50;;;;;;5008611;28;20141;-60
2022/07/17 07:29:44;;;;;;;4.80;3.70;;;21.20;93.50;;;;;;4998977;28;20107;-60
2022/07/17 07:32:10;;;;;;;6.15;3.92;;;21.30;93.30;;;;;;5009252;28;20033;-60
2022/07/17 07:34:35;;;;;;;5.82;4.00;;;21.20;93.20;;;;;;5009778;28;20038;-60
2022/07/17 07:37:01;;;;;;;12.93;3.90;;;21.20;92.50;;;;;;5011419;28;20088;-60
2022/07/17 07:39:27;;;;;;;8.85;4.07;;;21.30;92.30;;;;;;5011162;28;20354;-60
2022/07/17 07:41:53;;;;;;;7.82;4.05;;;21.40;93.10;;;;;;5010746;28;20034;-60
2022/07/17 07:44:18;;;;;;;9.18;3.55;;;21.70;92.90;;;;;;5011106;28;20349;-60
2022/07/17 07:46:44;;;;;;;6.95;3.95;;;22.00;91.60;;;;;;5010214;28;20531;-60
2022/07/17 07:49:10;;;;;;;7.63;3.88;;;22.00;90.90;;;;;;5010325;28;20034;-60
2022/07/17 07:51:35;;;;;;;6.60;3.38;;;22.10;91.40;;;;;;5007379;28;20045;-60
2022/07/17 07:54:01;;;;;;;5.53;3.50;;;22.10;91.10;;;;;;5008999;28;20108;-60
2022/07/17 07:56:27;;;;;;;5.03;3.70;;;22.40;90.30;;;;;;5009355;28;20038;-61
2022/07/17 07:58:53;;;;;;;4.97;3.35;;;22.60;90.00;;;;;;5010286;28;20109;-60
2022/07/17 08:01:19;;;;;;;5.45;3.55;;;22.70;86.50;;;;;;5004241;28;20461;-60
2022/07/17 08:03:45;;;;;;;4.47;3.28;;;22.70;85.30;;;;;;5008989;28;20030;-60
2022/07/17 08:06:11;;;;;;;6.15;3.85;;;23.00;87.90;;;;;;5007935;28;20065;-60
2022/07/17 08:08:36;;;;;;;20.10;3.83;;;23.20;89.00;;;;;;5007674;28;20104;-60
2022/07/17 08:11:02;;;;;;;6.97;3.20;;;23.20;84.30;;;;;;4998300;28;20456;-60
2022/07/17 08:13:28;;;;;;;5.63;3.42;;;23.40;84.00;;;;;;4991269;28;20037;-60
2022/07/17 08:15:53;;;;;;;5.43;3.58;;;23.60;82.20;;;;;;4990537;28;20388;-60
2022/07/17 08:18:20;;;;;;;6.68;3.30;;;23.50;85.70;;;;;;4991349;28;20736;-60
2022/07/17 08:20:45;;;;;;;8.25;4.05;;;23.60;81.30;;;;;;4999856;28;20608;-60
2022/07/17 08:23:11;;;;;;;4.25;3.22;;;23.60;79.20;;;;;;5010492;28;20037;-60
2022/07/17 08:25:37;;;;;;;9.25;3.40;;;23.70;78.10;;;;;;5009775;28;20045;-61
2022/07/17 08:28:04;;;;;;;6.10;3.25;;;23.80;78.10;;;;;;5010281;28;20081;-60
2022/07/17 08:30:31;;;;;;;4.18;3.42;;;23.90;76.70;;;;;;5009903;28;20060;-60
2022/07/17 08:32:57;;;;;;;13.23;3.30;;;23.90;74.20;;;;;;5009890;28;20026;-60
2022/07/17 08:35:22;;;;;;;8.80;3.72;;;24.10;74.50;;;;;;5010489;28;20017;-60
2022/07/17 08:37:52;;;;;;;7.18;3.10;;;24.30;72.70;;;;;;5009748;28;20049;-60
2022/07/17 08:40:20;;;;;;;5.53;3.22;;;24.30;70.90;;;;;;5006979;28;20499;-61
2022/07/17 08:42:46;;;;;;;3.88;3.08;;;24.20;66.30;;;;;;5007609;28;20049;-61
2022/07/17 08:45:12;;;;;;;5.53;3.80;;;24.20;68.90;;;;;;5010732;28;20030;-61
2022/07/17 08:47:39;;;;;;;4.53;3.47;;;24.50;69.80;;;;;;5009658;28;20464;-60
2022/07/17 08:50:05;;;;;;;5.75;3.00;;;24.50;65.60;;;;;;5009554;28;20040;-61
2022/07/17 08:52:31;;;;;;;8.13;3.30;;;24.40;63.90;;;;;;5010219;28;20034;-61
2022/07/17 08:54:57;;;;;;;4.68;3.40;;;24.50;64.10;;;;;;5007911;28;20030;-61
2022/07/17 08:57:23;;;;;;;5.78;3.58;;;24.50;63.20;;;;;;4974366;28;20030;-61
2022/07/17 08:59:49;;;;;;;4.90;4.03;;;24.40;61.70;;;;;;4989207;28;20092;-60
2022/07/17 09:02:14;;;;;;;4.50;3.30;;;24.40;61.60;;;;;;4990704;28;20046;-61
2022/07/17 09:04:41;;;;;;;4.82;3.25;;;24.70;63.10;;;;;;5009118;28;20026;-61
2022/07/17 09:07:06;;;;;;;7.80;3.33;;;24.90;64.50;;;;;;5010180;28;20026;-61
2022/07/17 09:09:36;;;;;;;4.47;3.20;;;25.00;63.80;;;;;;5009938;28;20476;-61
2022/07/17 09:12:05;;;;;;;5.50;2.92;;;25.00;60.70;;;;;;5008963;28;20038;-61
2022/07/17 09:14:40;;;;;;;5.32;2.95;;;25.10;60.80;;;;;;5010262;28;20057;-61
2022/07/17 09:17:09;;;;;;;3.50;2.97;;;25.10;60.50;;;;;;5009926;28;20092;-61
2022/07/17 09:19:37;;;;;;;5.10;3.15;;;25.30;60.40;;;;;;5009347;28;20412;-61
2022/07/17 09:22:12;;;;;;;21.20;3.28;;;25.20;61.70;;;;;;4987775;28;20038;-61
2022/07/17 09:24:44;;;;;;;4.40;3.50;;;25.60;60.00;;;;;;4989437;28;20031;-61
2022/07/17 09:27:11;;;;;;;3.33;3.03;;;25.70;58.90;;;;;;4989821;28;20054;-61
2022/07/17 09:29:54;;;;;;;3.65;3.30;;;25.80;60.40;;;;;;4989539;28;20049;-61
2022/07/17 09:32:21;;;;;;;9.07;3.22;;;26.00;62.30;;;;;;4989727;28;20038;-61
2022/07/17 09:34:48;;;;;;;4.53;2.95;;;26.20;60.00;;;;;;4989353;28;20097;-62
2022/07/17 09:37:14;;;;;;;3.58;2.97;;;26.40;59.00;;;;;;4990167;28;20026;-61
2022/07/17 09:39:39;;;;;;;5.88;3.67;;;26.20;56.30;;;;;;4989228;28;20034;-60
2022/07/17 09:42:06;;;;;;;5.88;3.55;;;26.20;57.20;;;;;;4989999;28;20088;-61
2022/07/17 09:44:32;;;;;;;5.43;3.35;;;26.20;59.20;;;;;;4990087;28;20129;-61
2022/07/17 09:46:58;;;;;;;6.68;3.15;;;26.50;55.90;;;;;;4992135;28;20559;-61
2022/07/17 09:49:28;;;;;;;5.25;2.97;;;26.20;58.20;;;;;;4994080;28;20380;-61
2022/07/17 09:51:54;;;;;;;5.70;3.30;;;25.90;55.10;;;;;;4993327;28;20100;-61
2022/07/17 09:54:22;;;;;;;4.15;2.40;;;26.10;58.00;;;;;;5004929;28;20030;-61
2022/07/17 09:56:50;;;;;;;7.15;3.00;;;26.40;57.40;;;;;;5012561;28;20053;-61
2022/07/17 09:59:17;;;;;;;5.85;2.70;;;26.40;55.20;;;;;;5013434;28;20487;-61
2022/07/17 10:01:44;;;;;;;4.38;2.83;;;26.30;54.20;;;;;;5012303;28;20117;-61
2022/07/17 10:04:11;;;;;;;5.95;2.97;;;26.50;53.90;;;;;;5012663;28;20045;-61
2022/07/17 10:06:38;;;;;;;3.92;2.75;;;26.70;53.30;;;;;;5012677;28;20113;-62
2022/07/17 10:09:05;;;;;;;3.40;2.60;;;26.50;52.50;;;;;;5013063;28;20018;-61
2022/07/17 10:11:33;;;;;;;8.52;2.92;;;26.90;55.30;;;;;;5013200;28;20057;-61
2022/07/17 10:14:08;;;;;;;3.58;2.60;;;27.20;53.30;;;;;;5009707;28;20034;-61
2022/07/17 10:16:37;;;;;;;3.47;2.67;;;27.10;52.30;;;;;;4993853;28;20488;-61
2022/07/17 10:19:14;;;;;;;4.07;2.70;;;26.80;49.50;;;;;;4993016;28;20026;-61
2022/07/17 10:22:04;;;;;;;3.15;2.60;;;27.10;48.50;;;;;;4993099;28;20065;-61
2022/07/17 10:24:30;;;;;;;3.38;2.50;;;27.40;49.50;;;;;;4999372;28;20380;-61
2022/07/17 10:26:57;;;;;;;3.95;2.53;;;27.40;49.90;;;;;;5011724;28;20054;-60
2022/07/17 10:29:34;;;;;;;8.88;2.72;;;27.40;48.00;;;;;;5012148;28;20034;-62
2022/07/17 10:32:21;;;;;;;4.50;2.33;;;27.00;46.90;;;;;;5012006;28;20036;-61
2022/07/17 10:34:52;;;;;;;3.25;2.80;;;27.10;48.70;;;;;;4992576;28;20404;-61
2022/07/17 10:37:25;;;;;;;2.88;2.20;;;27.10;47.90;;;;;;5010186;28;20030;-61
2022/07/17 10:39:59;;;;;;;6.15;2.53;;;27.20;47.90;;;;;;4992232;28;20129;-61
2022/07/17 10:42:45;;;;;;;4.70;2.40;;;27.50;47.10;;;;;;4975472;28;20045;-61
2022/07/17 10:45:16;;;;;;;3.10;2.53;;;27.80;49.20;;;;;;5000448;28;20041;-61
2022/07/17 10:47:55;;;;;;;4.25;2.50;;;27.80;46.80;;;;;;5002949;28;20033;-61
2022/07/17 10:50:43;;;;;;;10.75;2.80;;;27.60;47.20;;;;;;5006752;28;20579;-62
2022/07/17 10:53:26;;;;;;;3.17;2.70;;;27.50;48.80;;;;;;5006706;28;20041;-61
2022/07/17 10:55:56;;;;;;;2.80;2.50;;;27.40;48.60;;;;;;5003616;28;20061;-61
2022/07/17 10:58:29;;;;;;;6.53;2.50;;;27.60;49.60;;;;;;5010553;28;20045;-62
2022/07/17 11:01:00;;;;;;;7.50;2.55;;;27.80;46.00;;;;;;5009608;28;20034;-62
2022/07/17 11:03:27;;;;;;;3.88;2.65;;;27.90;46.80;;;;;;5009882;28;20030;-62
2022/07/17 11:05:53;;;;;;;3.40;2.55;;;28.20;45.80;;;;;;4999869;28;20077;-62
2022/07/17 11:08:18;;;;;;;4.38;2.40;;;27.90;45.60;;;;;;5004501;28;20424;-62
2022/07/17 11:10:46;;;;;;;2.83;2.53;;;27.60;44.90;;;;;;5009082;28;20025;-62
2022/07/17 11:13:16;;;;;;;5.07;2.17;;;27.50;45.40;;;;;;5010019;28;20031;-61
2022/07/17 11:15:47;;;;;;;6.00;2.40;;;27.60;45.80;;;;;;5010030;28;20034;-61
2022/07/17 11:18:18;;;;;;;3.63;2.42;;;27.80;43.90;;;;;;5009479;28;20041;-61
2022/07/17 11:20:59;;;;;;;7.68;2.42;;;28.20;45.80;;;;;;5010433;28;20045;-62
2022/07/17 11:23:29;;;;;;;2.33;1.80;;;28.70;45.40;;;;;;5011146;28;20084;-62
2022/07/17 11:26:04;;;;;;;2.25;1.92;;;28.30;40.60;;;;;;5000336;28;20038;-62
2022/07/17 11:28:32;;;;;;;2.90;2.25;;;27.90;41.30;;;;;;5009389;28;20042;-62
2022/07/17 11:30:59;;;;;;;3.85;2.10;;;27.60;41.50;;;;;;5009299;28;20446;-62
2022/07/17 11:33:25;;;;;;;4.18;2.20;;;27.60;40.40;;;;;;5009698;28;20033;-62
2022/07/17 11:35:51;;;;;;;4.80;2.33;;;28.00;42.20;;;;;;5000362;28;20076;-62
2022/07/17 11:38:28;;;;;;;5.15;1.92;;;28.10;40.60;;;;;;5005838;28;20049;-62
2022/07/17 11:40:54;;;;;;;4.10;2.03;;;28.30;42.10;;;;;;5008908;28;20117;-62
2022/07/17 11:43:19;;;;;;;2.85;2.38;;;28.70;39.70;;;;;;5006512;28;20030;-62
2022/07/17 11:45:46;;;;;;;3.25;2.10;;;28.80;39.70;;;;;;5010341;28;20076;-62
2022/07/17 11:48:12;;;;;;;4.32;2.38;;;29.00;40.70;;;;;;5010134;28;20420;-62
2022/07/17 11:50:37;;;;;;;5.20;2.05;;;29.10;41.60;;;;;;5008121;28;20025;-62
2022/07/17 11:53:05;;;;;;;3.35;2.25;;;29.00;40.80;;;;;;4983139;28;20030;-62
2022/07/17 11:55:41;;;;;;;8.15;2.35;;;29.00;40.30;;;;;;5010597;28;20034;-62
2022/07/17 11:58:07;;;;;;;4.40;2.30;;;28.90;38.80;;;;;;5003992;28;20064;-62
2022/07/17 12:00:34;;;;;;;2.55;2.05;;;29.10;40.00;;;;;;5011100;28;20034;-62
2022/07/17 12:03:01;;;;;;;2.80;2.13;;;29.30;42.10;;;;;;5009049;28;20121;-62
2022/07/17 12:05:29;;;;;;;5.90;1.73;;;29.40;39.50;;;;;;5009947;28;20037;-62
2022/07/17 12:07:55;;;;;;;5.20;2.22;;;29.50;38.80;;;;;;4990123;28;20112;-62
2022/07/17 12:10:22;;;;;;;2.45;1.83;;;29.40;37.70;;;;;;5009564;28;20029;-62
2022/07/17 12:13:05;;;;;;;2.53;1.70;;;29.60;39.30;;;;;;5006294;28;20118;-62
2022/07/17 12:15:35;;;;;;;2.97;1.88;;;30.00;40.00;;;;;;5010798;28;20488;-62
2022/07/17 12:18:01;;;;;;;2.42;1.85;;;30.00;36.60;;;;;;5008871;28;20084;-62
2022/07/17 12:20:41;;;;;;;3.50;1.92;;;29.80;36.30;;;;;;5010456;28;20041;-62
2022/07/17 12:23:06;;;;;;;2.00;1.70;;;29.70;35.20;;;;;;5009804;28;20584;-61
2022/07/17 12:25:32;;;;;;;4.38;1.85;;;29.40;33.30;;;;;;5010565;28;20092;-62
2022/07/17 12:27:57;;;;;;;1.85;1.45;;;29.30;36.00;;;;;;5007313;28;20050;-61
2022/07/17 12:30:23;;;;;;;2.00;1.80;;;29.40;33.70;;;;;;4988470;28;20042;-61
2022/07/17 12:32:49;;;;;;;2.53;1.88;;;29.50;36.50;;;;;;4990418;28;20033;-62
2022/07/17 12:35:15;;;;;;;2.50;2.03;;;29.40;35.40;;;;;;4990934;28;20034;-62
2022/07/17 12:37:41;;;;;;;3.60;1.85;;;29.60;36.70;;;;;;4990963;28;20085;-62
2022/07/17 12:40:08;;;;;;;2.55;1.85;;;29.50;37.30;;;;;;4990154;28;20031;-61
2022/07/17 12:42:34;;;;;;;2.10;1.90;;;29.10;36.00;;;;;;4990444;28;20030;-61